Time;durP1;ratioP1;P1;durP2;ratioP2;P2;SDS_P1;SDS_P2;PMS_P1;PMS_P2;Temp;Humidity;BMP_temperature;BMP_pressure;BME280_temperature;BME280_humidity;BME280_pressure;Samples;Min_cycle;Max_cycle;Signal;HPM_P1;HPM_P2
2022/02/05 07:48:15;;;;;;;45.13;25.38;;;6.00;99.90;;;;;;5059050;23;20058;-75
2022/02/05 07:50:41;;;;;;;47.10;24.85;;;6.10;99.90;;;;;;5055611;28;20054;-78
2022/02/05 07:53:07;;;;;;;46.25;24.02;;;6.10;99.90;;;;;;5051622;28;20024;-78
2022/02/05 07:55:32;;;;;;;52.60;24.98;;;6.20;99.90;;;;;;5055621;28;20025;-78
2022/02/05 07:57:58;;;;;;;58.35;27.45;;;6.20;99.90;;;;;;5053950;28;20535;-78
2022/02/05 08:00:24;;;;;;;55.50;28.42;;;6.20;99.90;;;;;;5055203;28;20025;-78
2022/02/05 08:02:51;;;;;;;62.13;30.52;;;6.30;99.90;;;;;;5059619;28;20033;-76
2022/02/05 08:05:17;;;;;;;59.47;29.13;;;6.30;99.90;;;;;;5044851;28;20018;-76
2022/02/05 08:07:43;;;;;;;54.17;28.10;;;6.30;99.90;;;;;;5040481;28;20023;-76
2022/02/05 08:10:10;;;;;;;58.15;28.85;;;6.40;99.90;;;;;;5034621;28;20104;-76
2022/02/05 08:12:40;;;;;;;52.15;28.25;;;6.40;99.90;;;;;;5064554;28;20051;-75
2022/02/05 08:15:06;;;;;;;50.42;27.52;;;6.50;99.90;;;;;;5074636;28;20106;-76
2022/02/05 08:17:35;;;;;;;55.63;29.23;;;6.60;99.90;;;;;;5074937;28;20081;-76
2022/02/05 08:20:00;;;;;;;47.75;27.23;;;6.60;99.90;;;;;;5089913;28;20059;-76
2022/02/05 08:22:27;;;;;;;48.95;27.40;;;6.70;99.90;;;;;;5072590;28;20056;-76
2022/02/05 08:24:53;;;;;;;51.38;28.25;;;6.70;99.90;;;;;;5044319;28;20694;-76
2022/02/05 08:27:18;;;;;;;56.00;28.17;;;6.80;99.90;;;;;;5041213;28;20104;-76
2022/02/05 08:29:56;;;;;;;55.67;27.40;;;6.90;99.90;;;;;;5041413;28;20027;-76
2022/02/05 08:32:25;;;;;;;57.83;28.55;;;6.90;99.90;;;;;;5041834;28;20031;-76
2022/02/05 08:34:51;;;;;;;61.83;30.40;;;7.00;99.90;;;;;;5043288;28;20084;-76
2022/02/05 08:37:17;;;;;;;58.10;30.45;;;7.10;99.90;;;;;;5042232;28;20025;-76
2022/02/05 08:39:43;;;;;;;70.55;34.88;;;7.20;99.90;;;;;;5041376;28;20132;-76
2022/02/05 08:42:12;;;;;;;67.88;36.13;;;7.20;99.90;;;;;;5043689;28;20029;-76
2022/02/05 08:44:38;;;;;;;65.85;35.08;;;7.30;99.90;;;;;;5059163;28;20035;-76
2022/02/05 08:47:04;;;;;;;71.22;37.08;;;7.40;99.90;;;;;;5052421;28;20029;-76
2022/02/05 08:49:31;;;;;;;74.85;38.38;;;7.50;99.90;;;;;;5050067;28;20048;-76
2022/02/05 08:52:00;;;;;;;76.07;39.38;;;7.60;99.90;;;;;;5051682;28;20029;-76
2022/02/05 08:54:27;;;;;;;74.63;40.03;;;7.60;99.90;;;;;;5052414;28;20033;-76
2022/02/05 08:56:54;;;;;;;84.70;41.83;;;7.70;99.90;;;;;;5068939;28;20470;-76
2022/02/05 08:59:36;;;;;;;77.85;41.63;;;7.80;99.90;;;;;;5051995;28;20033;-76
2022/02/05 09:02:12;;;;;;;71.00;40.90;;;7.80;99.90;;;;;;5053866;28;20028;-76
2022/02/05 09:07:12;;;;;;;72.30;39.22;;;7.90;99.90;;;;;;5052854;28;20029;-78
2022/02/05 09:09:52;;;;;;;73.63;38.25;;;8.00;99.90;;;;;;5052455;28;20032;-78
2022/02/05 09:14:55;;;;;;;82.78;41.28;;;8.00;99.90;;;;;;5050509;28;20337;-78
2022/02/05 09:17:24;;;;;;;78.03;39.97;;;8.00;99.90;;;;;;5049188;28;20505;-78
2022/02/05 09:20:09;;;;;;;80.25;42.42;;;8.00;99.90;;;;;;5050012;28;20159;-78
2022/02/05 09:22:35;;;;;;;75.75;41.97;;;8.00;99.90;;;;;;5052169;28;20032;-78
2022/02/05 09:25:00;;;;;;;78.57;41.05;;;8.10;99.90;;;;;;5053388;28;20025;-78
2022/02/05 09:27:45;;;;;;;76.38;42.25;;;8.10;99.90;;;;;;5051871;28;20028;-78
2022/02/05 09:30:17;;;;;;;81.20;43.15;;;8.10;99.90;;;;;;5052008;28;20078;-78
2022/02/05 09:32:43;;;;;;;77.55;42.05;;;8.20;99.90;;;;;;5051633;28;20107;-78
2022/02/05 09:35:11;;;;;;;84.10;42.42;;;8.20;99.90;;;;;;5050429;28;20035;-78
2022/02/05 09:37:37;;;;;;;81.18;43.22;;;8.30;99.90;;;;;;5043563;28;20326;-78
2022/02/05 09:40:04;;;;;;;91.40;45.72;;;8.30;99.90;;;;;;5050485;28;20176;-78
2022/02/05 09:42:30;;;;;;;82.25;43.38;;;8.40;99.90;;;;;;5052021;28;20025;-78
2022/02/05 09:45:00;;;;;;;87.38;45.33;;;8.40;99.90;;;;;;5051778;28;20494;-78
2022/02/05 09:47:26;;;;;;;79.55;43.00;;;8.40;99.90;;;;;;5050362;28;20029;-78
2022/02/05 09:49:52;;;;;;;84.90;44.83;;;8.50;99.90;;;;;;5051501;28;20047;-78
2022/02/05 09:52:25;;;;;;;89.47;43.72;;;8.50;99.90;;;;;;5051838;28;20099;-78
2022/02/05 09:54:51;;;;;;;87.85;44.78;;;8.60;99.90;;;;;;5051750;28;20051;-78
2022/02/05 09:57:20;;;;;;;82.63;44.92;;;8.60;99.90;;;;;;5050295;28;20025;-78
2022/02/05 09:59:53;;;;;;;83.90;44.03;;;8.70;99.90;;;;;;5050176;28;20025;-78
2022/02/05 10:02:23;;;;;;;86.72;46.10;;;8.70;99.90;;;;;;5051602;28;20056;-78
2022/02/05 10:05:11;;;;;;;96.30;45.03;;;8.80;99.90;;;;;;5051349;28;20053;-78
2022/02/05 10:08:02;;;;;;;81.25;43.42;;;8.80;99.90;;;;;;5047920;28;20490;-78
2022/02/05 10:10:40;;;;;;;84.63;43.85;;;8.80;99.90;;;;;;5049910;28;20029;-78
2022/02/05 10:13:18;;;;;;;83.57;43.80;;;8.90;99.90;;;;;;5051460;28;20028;-78
2022/02/05 10:15:50;;;;;;;84.05;43.22;;;8.90;99.90;;;;;;5051487;28;20116;-77
2022/02/05 10:18:30;;;;;;;86.28;45.83;;;9.00;99.90;;;;;;5051354;28;20068;-78
2022/02/05 10:20:58;;;;;;;80.13;44.05;;;8.90;99.90;;;;;;5051362;28;20036;-78
2022/02/05 10:23:25;;;;;;;90.70;46.28;;;8.90;99.90;;;;;;5051331;28;20486;-78
2022/02/05 10:25:53;;;;;;;93.20;47.03;;;8.90;99.90;;;;;;5051290;28;20107;-78
2022/02/05 10:28:19;;;;;;;87.78;44.75;;;9.00;99.90;;;;;;5051398;28;20032;-78
2022/02/05 10:30:48;;;;;;;86.22;45.63;;;8.90;99.90;;;;;;5051057;28;20552;-78
2022/02/05 10:33:29;;;;;;;90.43;46.38;;;8.90;99.90;;;;;;5050925;28;20009;-78
2022/02/05 10:36:10;;;;;;;89.18;46.58;;;8.90;99.90;;;;;;5051210;28;20021;-78
2022/02/05 10:43:57;;;;;;;95.60;48.35;;;8.90;99.90;;;;;;5051214;28;20155;-78
2022/02/05 10:46:35;;;;;;;92.45;46.22;;;8.90;99.90;;;;;;5051469;28;20055;-78
2022/02/05 10:49:01;;;;;;;89.28;46.63;;;8.90;99.90;;;;;;5053684;28;20091;-78
2022/02/05 10:51:47;;;;;;;90.38;45.75;;;8.90;99.90;;;;;;5053852;28;20505;-78
2022/02/05 10:54:31;;;;;;;88.25;45.45;;;9.00;99.90;;;;;;5053757;28;20044;-78
2022/02/05 10:57:42;;;;;;;83.95;45.20;;;9.00;99.90;;;;;;5055133;28;20021;-78
2022/02/05 11:08:13;;;;;;;85.20;44.45;;;9.20;99.90;;;;;;5055056;28;20086;-77
2022/02/05 11:18:54;;;;;;;84.63;45.45;;;9.60;99.90;;;;;;5054498;28;19959;-78
2022/02/05 11:21:20;;;;;;;85.85;46.30;;;9.70;99.90;;;;;;5053288;28;20120;-77
2022/02/05 11:23:58;;;;;;;88.18;45.50;;;9.70;99.90;;;;;;5054644;28;20052;-77
2022/02/05 11:26:25;;;;;;;87.85;44.45;;;9.80;99.90;;;;;;5054557;28;20028;-77
2022/02/05 11:28:54;;;;;;;92.03;45.90;;;9.80;99.90;;;;;;5054392;28;20028;-78
2022/02/05 11:34:33;;;;;;;85.93;45.88;;;9.80;99.90;;;;;;5046994;28;20156;-77
2022/02/05 11:37:04;;;;;;;84.00;43.90;;;9.80;99.90;;;;;;5031914;28;20021;-77
2022/02/05 11:40:06;;;;;;;78.57;43.42;;;9.90;99.90;;;;;;5042472;28;20021;-77
2022/02/05 11:42:36;;;;;;;84.00;44.42;;;9.90;99.90;;;;;;4996694;28;20034;-77
2022/02/05 11:45:34;;;;;;;81.78;44.13;;;10.00;99.90;;;;;;5039997;28;20111;-77
2022/02/05 11:48:36;;;;;;;85.13;45.38;;;10.10;99.90;;;;;;5002423;28;20506;-78
2022/02/05 11:51:16;;;;;;;77.63;42.50;;;10.20;99.90;;;;;;5044578;28;20061;-77
2022/02/05 11:53:58;;;;;;;81.43;42.13;;;10.30;99.90;;;;;;5044468;28;20026;-77
2022/02/05 11:59:34;;;;;;;78.78;43.08;;;10.40;99.90;;;;;;5041770;28;20025;-77
2022/02/05 12:02:20;;;;;;;88.28;44.00;;;10.50;99.90;;;;;;5046484;28;20112;-77
2022/02/05 12:05:07;;;;;;;80.85;41.88;;;10.60;99.90;;;;;;5038693;28;20509;-77
2022/02/05 12:07:32;;;;;;;79.25;40.83;;;10.70;99.90;;;;;;5035219;28;20029;-77
2022/02/05 12:09:58;;;;;;;79.90;42.45;;;10.70;99.90;;;;;;5040243;28;20092;-77
2022/02/05 12:15:08;;;;;;;78.30;39.78;;;10.80;99.90;;;;;;5051914;28;20033;-77
2022/02/05 12:20:27;;;;;;;76.53;41.22;;;10.90;99.90;;;;;;5039414;28;20422;-77
2022/02/05 12:23:04;;;;;;;79.38;40.78;;;10.90;99.90;;;;;;5038825;28;20040;-77
2022/02/05 12:25:30;;;;;;;82.85;40.47;;;11.00;99.90;;;;;;5034186;28;20060;-77
2022/02/05 12:27:56;;;;;;;72.93;41.90;;;11.10;99.90;;;;;;5058551;22;20088;-76
2022/02/05 12:30:29;;;;;;;82.03;41.45;;;11.10;99.90;;;;;;5069565;28;20044;-76
2022/02/05 12:32:55;;;;;;;80.70;40.88;;;11.10;99.90;;;;;;5053480;28;20107;-76
2022/02/05 12:35:22;;;;;;;76.10;40.45;;;11.10;99.90;;;;;;5068338;28;20481;-76
2022/02/05 12:37:48;;;;;;;74.13;39.25;;;11.20;99.90;;;;;;5069016;28;20542;-76
2022/02/05 12:40:14;;;;;;;72.82;38.58;;;11.30;99.90;;;;;;5073147;28;20071;-76
2022/02/05 12:42:41;;;;;;;68.88;38.80;;;11.30;99.90;;;;;;5072829;28;20025;-77
2022/02/05 12:45:09;;;;;;;79.10;39.08;;;11.40;99.90;;;;;;5060185;28;20094;-76
2022/02/05 12:47:41;;;;;;;70.30;37.15;;;11.40;99.90;;;;;;5051232;28;20455;-76
2022/02/05 12:50:12;;;;;;;66.25;36.58;;;11.40;99.90;;;;;;5066052;28;20024;-77
2022/02/05 12:52:38;;;;;;;66.13;35.13;;;11.40;99.90;;;;;;5068328;28;20024;-76
2022/02/05 12:55:05;;;;;;;66.65;35.75;;;11.40;99.90;;;;;;5041923;28;20027;-76
2022/02/05 12:57:32;;;;;;;74.82;36.28;;;11.40;99.90;;;;;;5042266;28;20040;-76
2022/02/05 13:00:09;;;;;;;68.60;35.67;;;11.40;99.90;;;;;;5065806;28;20024;-76
2022/02/05 13:02:35;;;;;;;69.10;37.03;;;11.40;99.90;;;;;;5067344;28;20039;-77
2022/02/05 13:05:01;;;;;;;63.15;34.67;;;11.40;99.90;;;;;;5051499;28;20029;-76
2022/02/05 13:07:28;;;;;;;73.05;37.15;;;11.40;99.90;;;;;;5068317;28;20338;-76
2022/02/05 13:10:06;;;;;;;64.47;34.90;;;11.30;99.90;;;;;;5066272;28;20559;-76
2022/02/05 13:12:35;;;;;;;71.18;36.08;;;11.30;99.90;;;;;;5040377;28;20027;-77
2022/02/05 13:15:22;;;;;;;61.50;35.28;;;11.30;99.90;;;;;;5047339;28;20028;-76
2022/02/05 13:29:15;;;;;;;65.85;35.88;;;11.40;99.90;;;;;;5072725;28;20048;-76
2022/02/05 13:34:39;;;;;;;61.78;32.78;;;11.40;99.90;;;;;;5072793;28;20099;-76
2022/02/05 13:39:56;;;;;;;55.58;30.63;;;11.50;99.90;;;;;;5062721;28;20422;-75
2022/02/05 13:42:26;;;;;;;62.90;31.63;;;11.50;99.90;;;;;;5044869;28;20035;-75
2022/02/05 13:45:10;;;;;;;56.33;31.13;;;11.50;99.90;;;;;;5068793;28;20497;-75
2022/02/05 13:47:49;;;;;;;65.88;32.08;;;11.50;99.90;;;;;;5049312;28;20028;-75
2022/02/05 13:50:19;;;;;;;61.47;30.50;;;11.50;99.90;;;;;;5057273;28;20025;-78
2022/02/05 13:52:46;;;;;;;63.63;30.40;;;11.40;99.90;;;;;;5070197;28;20051;-78
2022/02/05 13:55:14;;;;;;;59.28;30.48;;;11.40;99.90;;;;;;5060268;28;20112;-78
2022/02/05 13:58:02;;;;;;;45.08;21.60;;;11.40;99.90;;;;;;5034946;28;20044;-78
2022/02/05 14:00:47;;;;;;;61.47;29.40;;;11.30;99.90;;;;;;5035469;28;20029;-78
2022/02/05 14:03:35;;;;;;;58.28;29.05;;;11.30;99.90;;;;;;5052897;28;20109;-78
2022/02/05 14:06:09;;;;;;;56.88;29.27;;;11.30;99.90;;;;;;5052035;28;20035;-78
2022/02/05 14:08:36;;;;;;;54.13;28.52;;;11.20;99.90;;;;;;5034940;28;20107;-78
2022/02/05 14:11:07;;;;;;;56.20;28.65;;;11.20;99.90;;;;;;5067323;28;20021;-76
2022/02/05 14:13:34;;;;;;;55.00;28.75;;;11.10;99.90;;;;;;5053002;28;20028;-76
2022/02/05 14:16:01;;;;;;;55.40;28.85;;;11.20;99.90;;;;;;5057658;28;20036;-75
2022/02/05 14:18:30;;;;;;;53.10;30.40;;;11.10;99.90;;;;;;5057784;28;20025;-78
2022/02/05 14:20:56;;;;;;;53.75;31.20;;;11.10;99.90;;;;;;5034121;28;20021;-78
2022/02/05 14:23:24;;;;;;;50.58;28.67;;;11.00;99.90;;;;;;5067292;28;20568;-78
2022/02/05 14:26:04;;;;;;;58.30;28.75;;;11.00;99.90;;;;;;5069055;28;20377;-75
2022/02/05 14:28:56;;;;;;;54.92;31.10;;;11.10;99.90;;;;;;5042952;28;20098;-75
2022/02/05 14:41:47;;;;;;;53.28;29.10;;;11.20;99.90;;;;;;5064042;28;20101;-76
2022/02/05 14:44:13;;;;;;;60.65;31.23;;;11.20;99.90;;;;;;5061121;28;20025;-76
2022/02/05 14:46:40;;;;;;;59.42;30.98;;;11.10;99.90;;;;;;5054789;28;20035;-76
2022/02/05 14:49:07;;;;;;;58.60;30.75;;;11.10;99.90;;;;;;5038634;28;20095;-76
2022/02/05 14:51:34;;;;;;;59.30;31.75;;;11.10;99.90;;;;;;5062615;28;20111;-77
2022/02/05 14:54:00;;;;;;;57.22;30.50;;;11.10;99.90;;;;;;5047817;28;20020;-76
2022/02/05 14:56:26;;;;;;;61.90;32.38;;;11.00;99.90;;;;;;5064684;28;20066;-76
2022/02/05 14:58:52;;;;;;;60.67;31.50;;;11.00;99.90;;;;;;5059565;28;20027;-76
2022/02/05 15:01:23;;;;;;;57.60;32.08;;;10.90;99.90;;;;;;5039449;28;20017;-76
2022/02/05 15:03:49;;;;;;;59.80;31.92;;;10.90;99.90;;;;;;5045265;28;20443;-76
2022/02/05 15:06:20;;;;;;;54.97;30.98;;;10.90;99.90;;;;;;5067136;28;20078;-76
2022/02/05 15:08:51;;;;;;;59.45;32.45;;;10.90;99.90;;;;;;5044755;28;20025;-76
2022/02/05 15:11:17;;;;;;;59.78;32.35;;;10.90;99.90;;;;;;5067008;28;20022;-76
2022/02/05 15:13:43;;;;;;;61.53;32.05;;;10.90;99.90;;;;;;5060555;28;20024;-76
2022/02/05 15:16:10;;;;;;;67.63;31.95;;;10.90;99.90;;;;;;5046509;28;20029;-76
2022/02/05 15:18:40;;;;;;;61.47;32.40;;;10.90;99.90;;;;;;5047506;28;20406;-76
2022/02/05 15:21:06;;;;;;;66.20;33.50;;;10.90;99.90;;;;;;5040799;28;20032;-76
2022/02/05 15:23:32;;;;;;;60.22;32.08;;;10.90;99.90;;;;;;5042821;28;20493;-76
2022/02/05 15:26:01;;;;;;;64.13;33.47;;;10.80;99.90;;;;;;5060793;28;20033;-76
2022/02/05 15:28:31;;;;;;;66.57;33.58;;;10.80;99.90;;;;;;5060206;28;20045;-76
2022/02/05 15:30:57;;;;;;;55.80;30.40;;;10.80;99.90;;;;;;5070864;28;20581;-75
2022/02/05 15:33:24;;;;;;;61.85;31.67;;;10.80;99.90;;;;;;5072476;28;20017;-77
2022/02/05 15:35:53;;;;;;;61.65;30.75;;;10.70;99.90;;;;;;5055795;28;20028;-76
2022/02/05 15:38:28;;;;;;;58.38;32.63;;;10.70;99.90;;;;;;5053888;28;20477;-77
2022/02/05 15:46:33;;;;;;;59.95;32.28;;;10.60;99.90;;;;;;5016837;28;20354;-77
2022/02/05 15:48:58;;;;;;;64.07;33.30;;;10.50;99.90;;;;;;5072338;28;20028;-77
2022/02/05 15:51:29;;;;;;;58.40;31.35;;;10.50;99.90;;;;;;5053372;28;20025;-77
2022/02/05 15:54:00;;;;;;;61.40;31.80;;;10.40;99.90;;;;;;5071061;28;20111;-77
2022/02/05 15:56:41;;;;;;;60.72;32.75;;;10.40;99.90;;;;;;5073091;28;20089;-77
2022/02/05 15:59:12;;;;;;;61.00;33.20;;;10.30;99.90;;;;;;5073791;28;20017;-77
2022/02/05 16:01:39;;;;;;;62.85;31.58;;;10.20;99.90;;;;;;5055789;28;20115;-77
2022/02/05 16:04:05;;;;;;;72.95;35.92;;;10.10;99.90;;;;;;5073959;28;20020;-77
2022/02/05 16:06:34;;;;;;;71.00;36.55;;;10.10;99.90;;;;;;5056454;28;20032;-77
2022/02/05 16:08:59;;;;;;;68.55;33.58;;;10.00;99.90;;;;;;5074765;28;20404;-77
2022/02/05 16:11:28;;;;;;;65.85;35.13;;;10.00;99.90;;;;;;5074912;28;20028;-77
2022/02/05 16:13:54;;;;;;;64.43;32.67;;;9.90;99.90;;;;;;5070993;28;20111;-77
2022/02/05 16:16:20;;;;;;;66.72;33.45;;;9.80;99.90;;;;;;5062919;28;20521;-77
2022/02/05 16:18:46;;;;;;;63.30;34.53;;;9.70;99.90;;;;;;5061253;28;20501;-77
2022/02/05 16:21:12;;;;;;;66.15;33.90;;;9.60;99.90;;;;;;5054832;28;20032;-77
2022/02/05 16:23:38;;;;;;;69.45;34.65;;;9.50;99.90;;;;;;5070160;28;20029;-77
2022/02/05 16:26:07;;;;;;;70.43;34.42;;;9.40;99.90;;;;;;5052477;28;20039;-77
2022/02/05 16:28:37;;;;;;;61.20;35.17;;;9.40;99.90;;;;;;5073167;28;20519;-77
2022/02/05 16:44:13;;;;;;;72.38;40.42;;;9.30;99.90;;;;;;6139355;22;1311872;-79
2022/02/05 16:46:40;;;;;;;75.88;39.92;;;9.30;99.90;;;;;;6166118;23;20120;-79
2022/02/05 16:49:09;;;;;;;62.80;34.55;;;9.20;99.90;;;;;;6193469;23;20081;-79
2022/02/05 16:51:36;;;;;;;63.25;34.17;;;9.10;99.90;;;;;;6193517;23;20009;-79
2022/02/05 16:54:04;;;;;;;69.38;36.53;;;9.10;99.90;;;;;;6166448;23;20008;-79
2022/02/05 16:56:34;;;;;;;65.93;33.95;;;9.00;99.90;;;;;;6166470;23;20454;-79
2022/02/05 16:59:01;;;;;;;68.75;35.55;;;8.90;99.90;;;;;;6191223;23;20008;-77
2022/02/05 17:01:29;;;;;;;71.22;36.30;;;8.90;99.90;;;;;;6190048;23;20460;-76
2022/02/05 17:03:58;;;;;;;68.43;35.15;;;8.80;99.90;;;;;;6188842;23;19996;-77
2022/02/05 17:06:27;;;;;;;64.20;34.97;;;8.80;99.90;;;;;;6163831;23;20059;-79
2022/02/05 17:08:55;;;;;;;65.43;34.85;;;8.70;99.90;;;;;;6163267;23;20007;-79
2022/02/05 17:11:22;;;;;;;66.10;35.60;;;8.70;99.90;;;;;;6161929;23;20001;-79
2022/02/05 17:13:47;;;;;;;63.92;36.28;;;8.60;99.90;;;;;;6161078;23;20012;-79
2022/02/05 17:16:17;;;;;;;66.00;35.10;;;8.60;99.90;;;;;;6189660;23;20001;-79
2022/02/05 17:18:43;;;;;;;66.50;36.67;;;8.50;99.90;;;;;;6189531;23;20005;-79
2022/02/05 17:21:09;;;;;;;66.97;37.00;;;8.50;99.90;;;;;;6189815;23;20476;-79
2022/02/05 17:23:36;;;;;;;66.28;35.90;;;8.40;99.90;;;;;;6189548;23;20486;-79
2022/02/05 17:26:06;;;;;;;72.07;37.72;;;8.40;99.90;;;;;;6187311;23;20417;-79
2022/02/05 17:28:33;;;;;;;74.50;36.42;;;8.40;99.90;;;;;;6161907;23;20054;-79
2022/02/05 17:30:59;;;;;;;66.15;37.38;;;8.30;99.90;;;;;;6190618;23;20004;-79
2022/02/05 17:33:26;;;;;;;66.25;36.05;;;8.30;99.90;;;;;;6189532;23;20001;-79
2022/02/05 17:36:00;;;;;;;70.07;36.30;;;8.30;99.90;;;;;;6163763;23;20080;-79
2022/02/05 17:38:27;;;;;;;69.40;36.80;;;8.20;99.90;;;;;;6190649;23;20395;-79
2022/02/05 17:40:55;;;;;;;69.97;36.90;;;8.20;99.90;;;;;;6189335;23;20055;-79
2022/02/05 17:43:21;;;;;;;70.75;36.85;;;8.20;99.90;;;;;;6187992;23;20293;-79
2022/02/05 17:45:47;;;;;;;76.03;40.00;;;8.10;99.90;;;;;;6186289;23;20056;-78
2022/02/05 17:48:15;;;;;;;77.60;37.88;;;8.10;99.90;;;;;;6186287;23;20386;-79
2022/02/05 17:50:42;;;;;;;76.70;38.95;;;8.10;99.90;;;;;;6183987;23;20008;-79
2022/02/05 17:53:12;;;;;;;70.10;38.10;;;8.10;99.90;;;;;;6182674;23;20005;-79
2022/02/05 17:55:38;;;;;;;73.93;39.20;;;8.00;99.90;;;;;;6183899;23;20007;-79
2022/02/05 17:58:04;;;;;;;80.07;40.22;;;8.00;99.90;;;;;;6156811;23;20001;-79
2022/02/05 18:00:36;;;;;;;82.63;41.67;;;7.90;99.90;;;;;;6182913;23;20008;-79
2022/02/05 18:03:05;;;;;;;81.70;39.90;;;7.90;99.90;;;;;;6183863;23;20005;-79
2022/02/05 18:05:40;;;;;;;74.97;40.88;;;7.80;99.90;;;;;;6183389;23;20479;-79
2022/02/05 18:10:50;;;;;;;79.30;41.05;;;7.80;99.90;;;;;;6184915;23;20040;-79
2022/02/05 18:16:03;;;;;;;78.43;41.97;;;7.80;99.90;;;;;;6180556;23;20013;-78
2022/02/05 18:18:29;;;;;;;83.72;43.03;;;7.80;99.90;;;;;;6179848;23;20372;-79
2022/02/05 18:20:56;;;;;;;75.13;41.13;;;7.70;99.90;;;;;;6180365;23;20026;-79
2022/02/05 18:23:22;;;;;;;80.78;42.83;;;7.70;99.90;;;;;;6153330;23;20333;-79
2022/02/05 18:25:48;;;;;;;75.68;40.35;;;7.70;99.90;;;;;;6181084;23;20032;-79
2022/02/05 18:28:16;;;;;;;74.63;40.70;;;7.60;99.90;;;;;;6156290;23;20452;-79
2022/02/05 18:30:45;;;;;;;72.05;39.83;;;7.60;99.90;;;;;;6182029;23;20009;-79
2022/02/05 18:33:11;;;;;;;77.95;41.58;;;7.60;99.90;;;;;;6181489;23;20005;-79
2022/02/05 18:35:37;;;;;;;78.88;42.42;;;7.60;99.90;;;;;;6181923;23;20025;-79
2022/02/05 18:38:09;;;;;;;79.93;40.83;;;7.50;99.90;;;;;;6181674;23;20336;-79
2022/02/05 18:40:46;;;;;;;79.03;43.10;;;7.50;99.90;;;;;;6181641;23;19997;-79
2022/02/05 18:43:14;;;;;;;77.97;41.60;;;7.50;99.90;;;;;;6182032;23;20096;-79
2022/02/05 18:45:42;;;;;;;82.22;43.95;;;7.40;99.90;;;;;;6182950;23;20015;-73
2022/02/05 18:48:09;;;;;;;74.05;41.45;;;7.40;99.90;;;;;;6178893;23;20008;-73
2022/02/05 18:50:35;;;;;;;81.82;42.95;;;7.40;99.90;;;;;;6179731;23;20632;-73
2022/02/05 18:53:01;;;;;;;81.65;42.22;;;7.40;99.90;;;;;;6179925;23;20001;-73
2022/02/05 18:55:27;;;;;;;81.63;42.95;;;7.40;99.90;;;;;;6180625;23;19997;-73
2022/02/05 18:57:54;;;;;;;76.18;42.65;;;7.30;99.90;;;;;;6179070;23;20001;-73
2022/02/05 19:00:30;;;;;;;80.45;43.00;;;7.30;99.90;;;;;;6181012;23;20008;-74
2022/02/05 19:19:03;;;;;;;85.68;44.05;;;7.10;99.90;;;;;;6182058;23;20012;-80
2022/02/05 19:21:30;;;;;;;78.75;44.50;;;7.10;99.90;;;;;;6181966;23;20016;-79
2022/02/05 19:23:56;;;;;;;83.68;43.63;;;7.10;99.90;;;;;;6182623;23;20425;-78
2022/02/05 19:26:22;;;;;;;79.20;44.15;;;7.10;99.90;;;;;;6181706;23;20005;-79
2022/02/05 19:28:48;;;;;;;79.20;43.40;;;7.10;99.90;;;;;;6182037;23;20024;-79
2022/02/05 19:31:14;;;;;;;79.80;45.20;;;7.10;99.90;;;;;;6182617;23;20040;-79
2022/02/05 19:33:40;;;;;;;79.68;43.55;;;7.00;99.90;;;;;;6181998;23;20009;-79
2022/02/05 19:36:06;;;;;;;77.78;42.38;;;7.00;99.90;;;;;;6181855;23;20443;-79
2022/02/05 19:38:33;;;;;;;84.70;45.95;;;7.00;99.90;;;;;;6182645;23;20001;-79
2022/02/05 19:40:59;;;;;;;78.38;43.92;;;7.00;99.90;;;;;;6182213;23;20052;-79
2022/02/05 19:43:28;;;;;;;78.22;44.22;;;7.00;99.90;;;;;;6136038;23;20032;-80
2022/02/05 19:46:00;;;;;;;81.45;44.17;;;7.00;99.90;;;;;;6152670;23;20029;-80
2022/02/05 19:48:30;;;;;;;82.47;44.17;;;7.00;99.90;;;;;;6126013;23;20341;-79
2022/02/05 19:50:56;;;;;;;83.57;45.13;;;6.90;99.90;;;;;;6151973;23;20272;-79
2022/02/05 19:53:22;;;;;;;81.40;43.08;;;6.90;99.90;;;;;;6152562;23;20006;-80
2022/02/05 19:55:48;;;;;;;75.43;42.97;;;6.90;99.90;;;;;;6152140;23;19998;-80
2022/02/05 19:58:14;;;;;;;79.40;44.20;;;6.90;99.90;;;;;;6151872;23;20080;-79
2022/02/05 20:00:40;;;;;;;84.53;44.90;;;6.90;99.90;;;;;;6151322;23;20081;-80
2022/02/05 20:03:09;;;;;;;83.07;44.42;;;6.90;99.90;;;;;;6151935;23;20080;-79
2022/02/05 20:08:16;;;;;;;82.93;45.85;;;6.80;99.90;;;;;;6152746;23;20013;-73
2022/02/05 20:10:44;;;;;;;78.88;44.58;;;6.80;99.90;;;;;;6125452;23;20009;-73
2022/02/05 20:13:11;;;;;;;79.18;44.58;;;6.80;99.90;;;;;;6150280;23;20013;-73
2022/02/05 20:15:37;;;;;;;83.13;45.30;;;6.80;99.90;;;;;;6151042;23;20005;-73
2022/02/05 20:18:06;;;;;;;79.63;44.30;;;6.80;99.90;;;;;;6124617;23;20653;-73
2022/02/05 20:20:35;;;;;;;80.90;43.25;;;6.80;99.90;;;;;;6124707;23;20008;-73
2022/02/05 20:23:02;;;;;;;77.82;43.25;;;6.80;99.90;;;;;;6124700;23;20006;-73
2022/02/05 20:25:38;;;;;;;75.13;42.55;;;6.80;99.90;;;;;;6152145;23;20608;-79
2022/02/05 20:28:05;;;;;;;81.97;43.58;;;6.80;99.90;;;;;;6151793;23;20002;-80
2022/02/05 20:30:31;;;;;;;80.13;43.13;;;6.70;99.90;;;;;;6151998;23;20009;-80
2022/02/05 20:32:57;;;;;;;79.72;46.03;;;6.70;99.90;;;;;;6152239;23;20012;-80
2022/02/05 20:35:23;;;;;;;80.97;44.33;;;6.70;99.90;;;;;;6125679;23;20515;-80
2022/02/05 20:37:49;;;;;;;76.63;44.67;;;6.70;99.90;;;;;;6125582;23;20342;-79
2022/02/05 20:40:17;;;;;;;78.15;43.97;;;6.70;99.90;;;;;;6152096;23;20036;-80
2022/02/05 20:42:43;;;;;;;80.80;45.33;;;6.70;99.90;;;;;;6125230;23;20100;-79
2022/02/05 20:45:09;;;;;;;81.45;44.03;;;6.60;99.90;;;;;;6151668;23;20036;-79
2022/02/05 20:47:35;;;;;;;76.75;43.95;;;6.60;99.90;;;;;;6151625;23;20009;-80
2022/02/05 20:50:06;;;;;;;83.40;46.15;;;6.60;99.90;;;;;;6151372;23;20068;-79
2022/02/05 20:52:32;;;;;;;83.95;45.75;;;6.60;99.90;;;;;;6125557;23;20021;-79
2022/02/05 20:55:04;;;;;;;85.22;46.95;;;6.60;99.90;;;;;;6152303;23;19998;-80
2022/02/05 20:57:32;;;;;;;76.35;44.88;;;6.60;99.90;;;;;;6151809;23;20084;-80
2022/02/05 20:59:58;;;;;;;78.82;46.08;;;6.60;99.90;;;;;;6151805;23;20341;-80
2022/02/05 21:02:24;;;;;;;86.90;46.50;;;6.60;99.90;;;;;;6126095;23;20016;-80
2022/02/05 21:04:55;;;;;;;77.22;43.35;;;6.60;99.90;;;;;;6152137;23;20047;-80
2022/02/05 21:07:22;;;;;;;78.55;44.40;;;6.60;99.90;;;;;;6151279;23;20001;-79
2022/02/05 21:09:48;;;;;;;80.20;43.15;;;6.60;99.90;;;;;;6152395;23;20005;-80
2022/02/05 21:12:14;;;;;;;79.45;42.50;;;6.50;99.90;;;;;;6151977;23;20422;-79
2022/02/05 21:14:40;;;;;;;76.45;41.70;;;6.50;99.90;;;;;;6124951;23;20009;-80
2022/02/05 21:17:06;;;;;;;80.13;44.10;;;6.50;99.90;;;;;;6152672;23;20008;-79
2022/02/05 21:19:32;;;;;;;75.45;42.88;;;6.50;99.90;;;;;;6153055;23;20029;-80
2022/02/05 21:21:57;;;;;;;76.90;42.22;;;6.50;99.90;;;;;;6126975;23;20010;-79
2022/02/05 21:24:25;;;;;;;76.18;42.60;;;6.50;99.90;;;;;;6153326;23;20500;-80
2022/02/05 21:26:53;;;;;;;74.55;42.05;;;6.50;99.90;;;;;;6127726;23;20016;-80
2022/02/05 21:29:26;;;;;;;75.45;43.88;;;6.50;99.90;;;;;;6153997;23;20330;-79
2022/02/05 21:32:01;;;;;;;77.03;44.53;;;6.40;99.90;;;;;;6154046;23;20005;-80
2022/02/05 21:34:31;;;;;;;79.75;43.47;;;6.50;99.90;;;;;;6154396;23;20433;-79
2022/02/05 21:36:58;;;;;;;78.10;43.95;;;6.50;99.90;;;;;;6153744;23;19997;-80
2022/02/05 21:39:24;;;;;;;74.70;42.70;;;6.50;99.90;;;;;;6127474;23;20005;-80
2022/02/05 21:41:50;;;;;;;85.72;43.33;;;6.50;99.90;;;;;;6154145;23;20084;-79
2022/02/05 21:44:16;;;;;;;75.72;39.90;;;6.40;99.90;;;;;;6181931;23;20084;-80
2022/02/05 21:46:41;;;;;;;81.28;43.33;;;6.40;99.90;;;;;;6180042;23;20005;-80
2022/02/05 21:49:08;;;;;;;75.65;41.78;;;6.40;99.90;;;;;;6181124;23;20587;-79
2022/02/05 21:51:36;;;;;;;76.30;41.75;;;6.40;99.90;;;;;;6154957;23;20005;-80
2022/02/05 21:54:11;;;;;;;70.13;39.75;;;6.40;99.90;;;;;;6180248;23;20005;-80
2022/02/05 21:56:43;;;;;;;74.38;40.70;;;6.40;99.90;;;;;;6181597;23;20310;-80
2022/02/05 21:59:11;;;;;;;75.38;41.03;;;6.40;99.90;;;;;;6181587;23;20407;-80
2022/02/05 22:01:40;;;;;;;72.93;39.50;;;6.40;99.90;;;;;;6182075;23;20033;-80
2022/02/05 22:04:08;;;;;;;65.38;39.42;;;6.30;99.90;;;;;;6182791;23;20072;-79
2022/02/05 22:06:34;;;;;;;69.90;38.13;;;6.30;99.90;;;;;;6183695;23;20001;-80
2022/02/05 22:09:00;;;;;;;73.55;39.92;;;6.30;99.90;;;;;;6183242;23;20496;-80
2022/02/05 22:11:26;;;;;;;73.35;40.58;;;6.30;99.90;;;;;;6183586;23;20017;-79
2022/02/05 22:13:52;;;;;;;66.55;36.78;;;6.30;99.90;;;;;;6156953;23;20084;-80
2022/02/05 22:16:18;;;;;;;75.45;39.45;;;6.30;99.90;;;;;;6182965;23;20005;-79
2022/02/05 22:18:44;;;;;;;71.63;38.97;;;6.30;99.90;;;;;;6183854;23;20013;-80
2022/02/05 22:21:10;;;;;;;66.30;37.97;;;6.30;99.90;;;;;;6183228;23;20159;-80